sensor_id;sensor_type;location;lat;lon;timestamp;temperature;humidity
31733;DHT22;18312;51.486;7.144;2022-09-29T00:02:03;6.70;99.90
31733;DHT22;18312;51.486;7.144;2022-09-29T00:04:30;6.70;99.90
31733;DHT22;18312;51.486;7.144;2022-09-29T00:06:56;6.70;99.90
31733;DHT22;18312;51.486;7.144;2022-09-29T00:09:24;6.70;99.90
31733;DHT22;18312;51.486;7.144;2022-09-29T00:11:53;6.70;99.90
31733;DHT22;18312;51.486;7.144;2022-09-29T00:14:20;6.60;99.90
31733;DHT22;18312;51.486;7.144;2022-09-29T00:16:47;6.60;99.90
31733;DHT22;18312;51.486;7.144;2022-09-29T00:19:18;6.60;99.90
31733;DHT22;18312;51.486;7.144;2022-09-29T00:21:44;6.70;99.90
31733;DHT22;18312;51.486;7.144;2022-09-29T00:24:11;6.70;99.90
31733;DHT22;18312;51.486;7.144;2022-09-29T00:26:39;6.60;99.90
31733;DHT22;18312;51.486;7.144;2022-09-29T00:29:09;6.60;99.90
31733;DHT22;18312;51.486;7.144;2022-09-29T00:31:36;6.50;99.90
31733;DHT22;18312;51.486;7.144;2022-09-29T00:34:03;6.50;99.90
31733;DHT22;18312;51.486;7.144;2022-09-29T00:36:29;6.50;99.90
31733;DHT22;18312;51.486;7.144;2022-09-29T00:38:57;6.50;99.90
31733;DHT22;18312;51.486;7.144;2022-09-29T00:41:25;6.60;99.90
31733;DHT22;18312;51.486;7.144;2022-09-29T00:43:56;6.50;99.90
31733;DHT22;18312;51.486;7.144;2022-09-29T00:46:29;6.50;99.90
31733;DHT22;18312;51.486;7.144;2022-09-29T00:49:02;6.60;99.90
31733;DHT22;18312;51.486;7.144;2022-09-29T00:51:32;6.60;99.90
31733;DHT22;18312;51.486;7.144;2022-09-29T00:54:01;6.70;99.90
31733;DHT22;18312;51.486;7.144;2022-09-29T00:56:29;6.70;99.90
31733;DHT22;18312;51.486;7.144;2022-09-29T00:59:00;6.60;99.90
31733;DHT22;18312;51.486;7.144;2022-09-29T01:01:30;6.70;99.90
31733;DHT22;18312;51.486;7.144;2022-09-29T01:04:02;6.80;99.90
31733;DHT22;18312;51.486;7.144;2022-09-29T01:06:33;6.80;99.90
31733;DHT22;18312;51.486;7.144;2022-09-29T01:09:03;6.80;99.90
31733;DHT22;18312;51.486;7.144;2022-09-29T01:11:31;6.80;99.90
31733;DHT22;18312;51.486;7.144;2022-09-29T01:14:06;6.80;99.90
31733;DHT22;18312;51.486;7.144;2022-09-29T01:16:34;6.80;99.90
31733;DHT22;18312;51.486;7.144;2022-09-29T01:19:06;6.80;99.90
31733;DHT22;18312;51.486;7.144;2022-09-29T01:21:37;6.70;99.90
31733;DHT22;18312;51.486;7.144;2022-09-29T01:24:50;6.70;99.90
31733;DHT22;18312;51.486;7.144;2022-09-29T01:27:26;6.50;99.90
31733;DHT22;18312;51.486;7.144;2022-09-29T01:30:13;6.50;99.90
31733;DHT22;18312;51.486;7.144;2022-09-29T01:33:08;6.40;99.90
31733;DHT22;18312;51.486;7.144;2022-09-29T01:35:47;6.50;99.90
31733;DHT22;18312;51.486;7.144;2022-09-29T01:38:30;6.50;99.90
31733;DHT22;18312;51.486;7.144;2022-09-29T01:41:04;6.40;99.90
31733;DHT22;18312;51.486;7.144;2022-09-29T01:43:35;6.30;99.90
31733;DHT22;18312;51.486;7.144;2022-09-29T01:46:07;6.40;99.90
31733;DHT22;18312;51.486;7.144;2022-09-29T01:48:41;6.40;99.90
31733;DHT22;18312;51.486;7.144;2022-09-29T01:51:12;6.40;99.90
31733;DHT22;18312;51.486;7.144;2022-09-29T01:53:45;6.30;99.90
31733;DHT22;18312;51.486;7.144;2022-09-29T01:56:17;6.40;99.90
31733;DHT22;18312;51.486;7.144;2022-09-29T01:58:47;6.30;99.90
31733;DHT22;18312;51.486;7.144;2022-09-29T02:01:19;6.30;99.90
31733;DHT22;18312;51.486;7.144;2022-09-29T02:03:50;6.30;99.90
31733;DHT22;18312;51.486;7.144;2022-09-29T02:06:23;6.30;99.90
31733;DHT22;18312;51.486;7.144;2022-09-29T02:08:52;6.20;99.90
31733;DHT22;18312;51.486;7.144;2022-09-29T02:11:20;6.30;99.90
31733;DHT22;18312;51.486;7.144;2022-09-29T02:13:52;6.30;99.90
31733;DHT22;18312;51.486;7.144;2022-09-29T02:16:24;6.30;99.90
31733;DHT22;18312;51.486;7.144;2022-09-29T02:18:53;6.10;99.90
31733;DHT22;18312;51.486;7.144;2022-09-29T02:21:21;6.00;99.90
31733;DHT22;18312;51.486;7.144;2022-09-29T02:23:48;5.90;99.90
31733;DHT22;18312;51.486;7.144;2022-09-29T02:26:16;5.90;99.90
31733;DHT22;18312;51.486;7.144;2022-09-29T02:28:44;5.90;99.90
31733;DHT22;18312;51.486;7.144;2022-09-29T02:31:11;5.80;99.90
31733;DHT22;18312;51.486;7.144;2022-09-29T02:33:38;5.80;99.90
31733;DHT22;18312;51.486;7.144;2022-09-29T02:36:16;5.90;99.90
31733;DHT22;18312;51.486;7.144;2022-09-29T02:38:50;6.00;99.90
31733;DHT22;18312;51.486;7.144;2022-09-29T02:41:33;6.10;99.90
31733;DHT22;18312;51.486;7.144;2022-09-29T02:44:15;6.10;99.90
31733;DHT22;18312;51.486;7.144;2022-09-29T02:47:08;6.20;99.90
31733;DHT22;18312;51.486;7.144;2022-09-29T02:49:49;6.20;99.90
31733;DHT22;18312;51.486;7.144;2022-09-29T02:52:24;6.10;99.90
31733;DHT22;18312;51.486;7.144;2022-09-29T02:54:59;6.10;99.90
31733;DHT22;18312;51.486;7.144;2022-09-29T02:57:34;6.10;99.90
31733;DHT22;18312;51.486;7.144;2022-09-29T03:00:07;6.00;99.90
31733;DHT22;18312;51.486;7.144;2022-09-29T03:02:36;5.90;99.90
31733;DHT22;18312;51.486;7.144;2022-09-29T03:05:04;5.80;99.90
31733;DHT22;18312;51.486;7.144;2022-09-29T03:07:33;5.80;99.90
31733;DHT22;18312;51.486;7.144;2022-09-29T03:10:01;5.80;99.90
31733;DHT22;18312;51.486;7.144;2022-09-29T03:12:28;5.80;99.90
31733;DHT22;18312;51.486;7.144;2022-09-29T03:14:55;5.60;99.90
31733;DHT22;18312;51.486;7.144;2022-09-29T03:17:22;5.60;99.90
31733;DHT22;18312;51.486;7.144;2022-09-29T03:19:48;5.80;99.90
31733;DHT22;18312;51.486;7.144;2022-09-29T03:22:15;5.80;99.90
31733;DHT22;18312;51.486;7.144;2022-09-29T03:24:44;5.60;99.90
31733;DHT22;18312;51.486;7.144;2022-09-29T03:27:11;5.60;99.90
31733;DHT22;18312;51.486;7.144;2022-09-29T03:29:38;5.50;99.90
31733;DHT22;18312;51.486;7.144;2022-09-29T03:32:05;5.50;99.90
31733;DHT22;18312;51.486;7.144;2022-09-29T03:34:32;5.40;99.90
31733;DHT22;18312;51.486;7.144;2022-09-29T03:36:59;5.30;99.90
31733;DHT22;18312;51.486;7.144;2022-09-29T03:39:25;5.40;99.90
31733;DHT22;18312;51.486;7.144;2022-09-29T03:41:54;5.30;99.90
31733;DHT22;18312;51.486;7.144;2022-09-29T03:44:21;5.20;99.90
31733;DHT22;18312;51.486;7.144;2022-09-29T03:46:48;5.00;99.90
31733;DHT22;18312;51.486;7.144;2022-09-29T03:49:14;5.10;99.90
31733;DHT22;18312;51.486;7.144;2022-09-29T03:51:42;5.00;99.90
31733;DHT22;18312;51.486;7.144;2022-09-29T03:54:10;5.00;99.90
31733;DHT22;18312;51.486;7.144;2022-09-29T03:56:37;5.10;99.90
31733;DHT22;18312;51.486;7.144;2022-09-29T03:59:06;5.20;99.90
31733;DHT22;18312;51.486;7.144;2022-09-29T04:01:34;5.30;99.90
31733;DHT22;18312;51.486;7.144;2022-09-29T04:04:00;5.30;99.90
31733;DHT22;18312;51.486;7.144;2022-09-29T04:06:27;5.40;99.90
31733;DHT22;18312;51.486;7.144;2022-09-29T04:08:54;5.40;99.90
31733;DHT22;18312;51.486;7.144;2022-09-29T04:11:21;5.30;99.90
31733;DHT22;18312;51.486;7.144;2022-09-29T04:13:47;5.30;99.90
31733;DHT22;18312;51.486;7.144;2022-09-29T04:16:15;5.20;99.90
31733;DHT22;18312;51.486;7.144;2022-09-29T04:18:42;5.10;99.90
31733;DHT22;18312;51.486;7.144;2022-09-29T04:21:10;5.20;99.90
31733;DHT22;18312;51.486;7.144;2022-09-29T04:23:37;5.20;99.90
31733;DHT22;18312;51.486;7.144;2022-09-29T04:26:05;5.20;99.90
31733;DHT22;18312;51.486;7.144;2022-09-29T04:28:34;5.20;99.90
31733;DHT22;18312;51.486;7.144;2022-09-29T04:31:01;5.10;99.90
31733;DHT22;18312;51.486;7.144;2022-09-29T04:33:29;5.10;99.90
31733;DHT22;18312;51.486;7.144;2022-09-29T04:35:56;5.00;99.90
31733;DHT22;18312;51.486;7.144;2022-09-29T04:38:23;4.90;99.90
31733;DHT22;18312;51.486;7.144;2022-09-29T04:40:50;4.90;99.90
31733;DHT22;18312;51.486;7.144;2022-09-29T04:43:17;4.80;99.90
31733;DHT22;18312;51.486;7.144;2022-09-29T04:45:44;4.70;99.90
31733;DHT22;18312;51.486;7.144;2022-09-29T04:48:11;4.70;99.90
31733;DHT22;18312;51.486;7.144;2022-09-29T04:50:39;4.60;99.90
31733;DHT22;18312;51.486;7.144;2022-09-29T04:53:06;4.70;99.90
31733;DHT22;18312;51.486;7.144;2022-09-29T04:55:33;4.70;99.90
31733;DHT22;18312;51.486;7.144;2022-09-29T04:58:02;4.80;99.90
31733;DHT22;18312;51.486;7.144;2022-09-29T05:00:29;4.90;99.90
31733;DHT22;18312;51.486;7.144;2022-09-29T05:02:57;5.00;99.90
31733;DHT22;18312;51.486;7.144;2022-09-29T05:05:24;5.00;99.90
31733;DHT22;18312;51.486;7.144;2022-09-29T05:07:52;5.10;99.90
31733;DHT22;18312;51.486;7.144;2022-09-29T05:10:19;5.20;99.90
31733;DHT22;18312;51.486;7.144;2022-09-29T05:12:47;5.10;99.90
31733;DHT22;18312;51.486;7.144;2022-09-29T05:15:15;5.10;99.90
31733;DHT22;18312;51.486;7.144;2022-09-29T05:17:42;5.00;99.90
31733;DHT22;18312;51.486;7.144;2022-09-29T05:20:09;5.10;99.90
31733;DHT22;18312;51.486;7.144;2022-09-29T05:22:35;5.10;99.90
31733;DHT22;18312;51.486;7.144;2022-09-29T05:25:04;5.00;99.90
31733;DHT22;18312;51.486;7.144;2022-09-29T05:27:33;5.00;99.90
31733;DHT22;18312;51.486;7.144;2022-09-29T05:30:00;4.90;99.90
31733;DHT22;18312;51.486;7.144;2022-09-29T05:32:26;4.80;99.90
31733;DHT22;18312;51.486;7.144;2022-09-29T05:34:53;4.90;99.90
31733;DHT22;18312;51.486;7.144;2022-09-29T05:37:20;4.90;99.90
31733;DHT22;18312;51.486;7.144;2022-09-29T05:39:46;4.90;99.90
31733;DHT22;18312;51.486;7.144;2022-09-29T05:42:14;4.90;99.90
31733;DHT22;18312;51.486;7.144;2022-09-29T05:44:41;4.90;99.90
31733;DHT22;18312;51.486;7.144;2022-09-29T05:47:08;5.00;99.90
31733;DHT22;18312;51.486;7.144;2022-09-29T05:49:37;4.90;99.90
31733;DHT22;18312;51.486;7.144;2022-09-29T05:52:03;4.80;99.90
31733;DHT22;18312;51.486;7.144;2022-09-29T05:54:30;4.70;99.90
31733;DHT22;18312;51.486;7.144;2022-09-29T05:56:57;4.80;99.90
31733;DHT22;18312;51.486;7.144;2022-09-29T05:59:25;4.90;99.90
31733;DHT22;18312;51.486;7.144;2022-09-29T06:01:51;5.00;99.90
31733;DHT22;18312;51.486;7.144;2022-09-29T06:04:18;4.90;99.90
31733;DHT22;18312;51.486;7.144;2022-09-29T06:06:45;4.90;99.90
31733;DHT22;18312;51.486;7.144;2022-09-29T06:09:13;4.90;99.90
31733;DHT22;18312;51.486;7.144;2022-09-29T06:11:40;4.90;99.90
31733;DHT22;18312;51.486;7.144;2022-09-29T06:14:06;5.00;99.90
31733;DHT22;18312;51.486;7.144;2022-09-29T06:16:34;5.20;99.90
31733;DHT22;18312;51.486;7.144;2022-09-29T06:19:02;5.30;99.90
31733;DHT22;18312;51.486;7.144;2022-09-29T06:21:31;5.30;99.90
31733;DHT22;18312;51.486;7.144;2022-09-29T06:23:59;5.30;99.90
31733;DHT22;18312;51.486;7.144;2022-09-29T06:26:26;5.30;99.90
31733;DHT22;18312;51.486;7.144;2022-09-29T06:28:54;5.30;99.90
31733;DHT22;18312;51.486;7.144;2022-09-29T06:31:22;5.40;99.90
31733;DHT22;18312;51.486;7.144;2022-09-29T06:33:51;5.50;99.90
31733;DHT22;18312;51.486;7.144;2022-09-29T06:36:23;5.40;99.90
31733;DHT22;18312;51.486;7.144;2022-09-29T06:39:09;5.30;99.90
31733;DHT22;18312;51.486;7.144;2022-09-29T06:41:36;5.40;99.90
31733;DHT22;18312;51.486;7.144;2022-09-29T06:44:03;5.40;99.90
31733;DHT22;18312;51.486;7.144;2022-09-29T06:46:30;5.40;99.90
31733;DHT22;18312;51.486;7.144;2022-09-29T06:48:58;5.50;99.90
31733;DHT22;18312;51.486;7.144;2022-09-29T06:51:26;5.70;99.90
31733;DHT22;18312;51.486;7.144;2022-09-29T06:53:53;5.80;99.90
31733;DHT22;18312;51.486;7.144;2022-09-29T06:56:19;5.90;99.90
31733;DHT22;18312;51.486;7.144;2022-09-29T06:58:46;6.00;99.90
31733;DHT22;18312;51.486;7.144;2022-09-29T07:01:13;6.10;99.90
31733;DHT22;18312;51.486;7.144;2022-09-29T07:03:41;6.30;99.90
31733;DHT22;18312;51.486;7.144;2022-09-29T07:06:09;6.40;99.90
31733;DHT22;18312;51.486;7.144;2022-09-29T07:08:37;6.90;99.90
31733;DHT22;18312;51.486;7.144;2022-09-29T07:11:05;7.00;99.90
31733;DHT22;18312;51.486;7.144;2022-09-29T07:13:32;7.00;99.90
31733;DHT22;18312;51.486;7.144;2022-09-29T07:16:04;7.00;99.90
31733;DHT22;18312;51.486;7.144;2022-09-29T07:18:32;7.00;99.90
31733;DHT22;18312;51.486;7.144;2022-09-29T07:21:00;7.10;99.90
31733;DHT22;18312;51.486;7.144;2022-09-29T07:23:28;7.30;99.90
31733;DHT22;18312;51.486;7.144;2022-09-29T07:25:54;7.40;99.90
31733;DHT22;18312;51.486;7.144;2022-09-29T07:28:22;7.50;99.90
31733;DHT22;18312;51.486;7.144;2022-09-29T07:30:57;7.70;99.90
31733;DHT22;18312;51.486;7.144;2022-09-29T07:33:24;7.80;99.90
31733;DHT22;18312;51.486;7.144;2022-09-29T07:35:51;7.90;99.90
31733;DHT22;18312;51.486;7.144;2022-09-29T07:38:18;8.10;99.90
31733;DHT22;18312;51.486;7.144;2022-09-29T07:40:46;8.20;99.90
31733;DHT22;18312;51.486;7.144;2022-09-29T07:43:13;8.30;99.90
31733;DHT22;18312;51.486;7.144;2022-09-29T07:45:46;8.40;99.90
31733;DHT22;18312;51.486;7.144;2022-09-29T07:48:13;8.60;99.90
31733;DHT22;18312;51.486;7.144;2022-09-29T07:50:41;8.90;99.90
31733;DHT22;18312;51.486;7.144;2022-09-29T07:53:09;9.50;99.90
31733;DHT22;18312;51.486;7.144;2022-09-29T07:55:36;9.40;99.90
31733;DHT22;18312;51.486;7.144;2022-09-29T07:58:05;9.30;99.90
31733;DHT22;18312;51.486;7.144;2022-09-29T08:00:31;9.20;99.90
31733;DHT22;18312;51.486;7.144;2022-09-29T08:02:59;9.20;99.90
31733;DHT22;18312;51.486;7.144;2022-09-29T08:05:28;9.30;99.90
31733;DHT22;18312;51.486;7.144;2022-09-29T08:07:58;9.40;99.90
31733;DHT22;18312;51.486;7.144;2022-09-29T08:10:25;9.50;99.90
31733;DHT22;18312;51.486;7.144;2022-09-29T08:12:52;9.50;99.90
31733;DHT22;18312;51.486;7.144;2022-09-29T08:15:21;9.60;99.90
31733;DHT22;18312;51.486;7.144;2022-09-29T08:17:52;9.70;99.90
31733;DHT22;18312;51.486;7.144;2022-09-29T08:20:31;9.70;99.90
31733;DHT22;18312;51.486;7.144;2022-09-29T08:23:00;9.80;99.90
31733;DHT22;18312;51.486;7.144;2022-09-29T08:25:27;9.70;99.90
31733;DHT22;18312;51.486;7.144;2022-09-29T08:27:54;9.80;99.90
31733;DHT22;18312;51.486;7.144;2022-09-29T08:30:22;10.00;99.90
31733;DHT22;18312;51.486;7.144;2022-09-29T08:32:52;10.00;99.90
31733;DHT22;18312;51.486;7.144;2022-09-29T08:35:19;10.30;99.90
31733;DHT22;18312;51.486;7.144;2022-09-29T08:37:46;10.40;99.90
31733;DHT22;18312;51.486;7.144;2022-09-29T08:40:13;10.30;99.90
31733;DHT22;18312;51.486;7.144;2022-09-29T08:42:47;10.30;99.90
31733;DHT22;18312;51.486;7.144;2022-09-29T08:45:24;10.40;99.90
31733;DHT22;18312;51.486;7.144;2022-09-29T08:48:00;10.50;99.90
31733;DHT22;18312;51.486;7.144;2022-09-29T08:50:32;10.60;99.90
31733;DHT22;18312;51.486;7.144;2022-09-29T08:53:04;10.60;99.90
31733;DHT22;18312;51.486;7.144;2022-09-29T08:55:38;10.70;99.90
31733;DHT22;18312;51.486;7.144;2022-09-29T08:58:09;10.70;99.90
31733;DHT22;18312;51.486;7.144;2022-09-29T09:00:42;10.80;99.90
31733;DHT22;18312;51.486;7.144;2022-09-29T09:03:35;10.80;99.90
31733;DHT22;18312;51.486;7.144;2022-09-29T09:06:15;10.90;99.90
31733;DHT22;18312;51.486;7.144;2022-09-29T09:08:48;11.00;99.90
31733;DHT22;18312;51.486;7.144;2022-09-29T09:11:29;11.10;99.90
31733;DHT22;18312;51.486;7.144;2022-09-29T09:14:05;11.20;99.90
31733;DHT22;18312;51.486;7.144;2022-09-29T09:16:40;11.20;99.90
31733;DHT22;18312;51.486;7.144;2022-09-29T09:22:20;11.30;99.90
31733;DHT22;18312;51.486;7.144;2022-09-29T09:24:57;11.30;99.90
31733;DHT22;18312;51.486;7.144;2022-09-29T09:27:26;11.50;99.90
31733;DHT22;18312;51.486;7.144;2022-09-29T09:30:02;12.40;99.90
31733;DHT22;18312;51.486;7.144;2022-09-29T09:32:35;14.60;99.90
31733;DHT22;18312;51.486;7.144;2022-09-29T09:35:10;13.90;99.90
31733;DHT22;18312;51.486;7.144;2022-09-29T09:37:46;13.10;99.90
31733;DHT22;18312;51.486;7.144;2022-09-29T09:40:16;12.60;99.90
31733;DHT22;18312;51.486;7.144;2022-09-29T09:42:50;12.40;99.90
31733;DHT22;18312;51.486;7.144;2022-09-29T09:45:25;12.30;99.90
31733;DHT22;18312;51.486;7.144;2022-09-29T09:48:00;12.40;99.90
31733;DHT22;18312;51.486;7.144;2022-09-29T09:50:29;12.50;99.90
31733;DHT22;18312;51.486;7.144;2022-09-29T09:52:59;12.50;99.90
31733;DHT22;18312;51.486;7.144;2022-09-29T09:55:28;12.50;99.90
31733;DHT22;18312;51.486;7.144;2022-09-29T09:58:24;12.50;99.90
31733;DHT22;18312;51.486;7.144;2022-09-29T10:00:58;12.70;99.90
31733;DHT22;18312;51.486;7.144;2022-09-29T10:03:28;12.80;99.90
31733;DHT22;18312;51.486;7.144;2022-09-29T10:05:56;12.90;99.90
31733;DHT22;18312;51.486;7.144;2022-09-29T10:08:24;13.00;99.90
31733;DHT22;18312;51.486;7.144;2022-09-29T10:10:52;13.30;99.90
31733;DHT22;18312;51.486;7.144;2022-09-29T10:13:19;13.50;99.90
31733;DHT22;18312;51.486;7.144;2022-09-29T10:15:57;13.80;99.90
31733;DHT22;18312;51.486;7.144;2022-09-29T10:18:35;14.00;99.90
31733;DHT22;18312;51.486;7.144;2022-09-29T10:21:19;14.10;99.90
31733;DHT22;18312;51.486;7.144;2022-09-29T10:23:50;14.10;99.90
31733;DHT22;18312;51.486;7.144;2022-09-29T10:26:20;14.20;99.90
31733;DHT22;18312;51.486;7.144;2022-09-29T10:28:53;14.40;99.90
31733;DHT22;18312;51.486;7.144;2022-09-29T10:31:23;14.70;99.90
31733;DHT22;18312;51.486;7.144;2022-09-29T10:33:53;14.50;99.90
31733;DHT22;18312;51.486;7.144;2022-09-29T10:36:25;14.80;99.90
31733;DHT22;18312;51.486;7.144;2022-09-29T10:38:52;15.00;99.90
31733;DHT22;18312;51.486;7.144;2022-09-29T10:41:20;14.70;99.90
31733;DHT22;18312;51.486;7.144;2022-09-29T10:43:48;14.30;99.90
31733;DHT22;18312;51.486;7.144;2022-09-29T10:46:47;14.10;99.90
31733;DHT22;18312;51.486;7.144;2022-09-29T10:49:17;14.00;99.90
31733;DHT22;18312;51.486;7.144;2022-09-29T10:51:52;13.80;99.90
31733;DHT22;18312;51.486;7.144;2022-09-29T10:54:21;13.70;99.90
31733;DHT22;18312;51.486;7.144;2022-09-29T10:56:52;13.80;99.90
31733;DHT22;18312;51.486;7.144;2022-09-29T10:59:20;13.90;99.90
31733;DHT22;18312;51.486;7.144;2022-09-29T11:01:49;14.00;99.90
31733;DHT22;18312;51.486;7.144;2022-09-29T11:04:22;14.10;99.90
31733;DHT22;18312;51.486;7.144;2022-09-29T11:06:50;14.10;99.90
31733;DHT22;18312;51.486;7.144;2022-09-29T11:09:29;14.10;99.90
31733;DHT22;18312;51.486;7.144;2022-09-29T11:11:57;14.10;99.90
31733;DHT22;18312;51.486;7.144;2022-09-29T11:14:28;14.10;99.90
31733;DHT22;18312;51.486;7.144;2022-09-29T11:16:56;13.90;99.90
31733;DHT22;18312;51.486;7.144;2022-09-29T11:19:25;13.80;99.90
31733;DHT22;18312;51.486;7.144;2022-09-29T11:22:16;13.70;99.90
31733;DHT22;18312;51.486;7.144;2022-09-29T11:25:14;13.70;99.90
31733;DHT22;18312;51.486;7.144;2022-09-29T11:28:05;13.90;99.90
31733;DHT22;18312;51.486;7.144;2022-09-29T11:30:41;14.20;99.90
31733;DHT22;18312;51.486;7.144;2022-09-29T11:33:19;14.60;99.90
31733;DHT22;18312;51.486;7.144;2022-09-29T11:35:54;15.00;99.90
31733;DHT22;18312;51.486;7.144;2022-09-29T11:38:52;15.40;99.90
31733;DHT22;18312;51.486;7.144;2022-09-29T11:41:36;15.40;99.90
31733;DHT22;18312;51.486;7.144;2022-09-29T11:44:17;15.60;99.90
31733;DHT22;18312;51.486;7.144;2022-09-29T11:46:58;15.80;99.90
31733;DHT22;18312;51.486;7.144;2022-09-29T11:49:52;16.10;99.90
31733;DHT22;18312;51.486;7.144;2022-09-29T11:52:44;16.40;97.70
31733;DHT22;18312;51.486;7.144;2022-09-29T11:55:29;16.50;97.20
31733;DHT22;18312;51.486;7.144;2022-09-29T11:58:07;16.60;95.80
31733;DHT22;18312;51.486;7.144;2022-09-29T12:00:49;16.50;95.10
31733;DHT22;18312;51.486;7.144;2022-09-29T12:03:27;16.60;96.10
31733;DHT22;18312;51.486;7.144;2022-09-29T12:06:05;16.60;97.90
31733;DHT22;18312;51.486;7.144;2022-09-29T12:08:46;16.60;94.10
31733;DHT22;18312;51.486;7.144;2022-09-29T12:11:22;16.90;94.00
31733;DHT22;18312;51.486;7.144;2022-09-29T12:13:54;16.80;93.00
31733;DHT22;18312;51.486;7.144;2022-09-29T12:16:28;16.80;98.70
31733;DHT22;18312;51.486;7.144;2022-09-29T12:18:59;16.70;92.50
31733;DHT22;18312;51.486;7.144;2022-09-29T12:21:31;16.70;91.20
31733;DHT22;18312;51.486;7.144;2022-09-29T12:24:04;16.80;95.20
31733;DHT22;18312;51.486;7.144;2022-09-29T12:26:32;16.60;93.70
31733;DHT22;18312;51.486;7.144;2022-09-29T12:29:02;16.20;96.60
31733;DHT22;18312;51.486;7.144;2022-09-29T12:31:34;15.80;95.00
31733;DHT22;18312;51.486;7.144;2022-09-29T12:34:05;15.50;95.70
31733;DHT22;18312;51.486;7.144;2022-09-29T12:36:44;15.30;99.90
31733;DHT22;18312;51.486;7.144;2022-09-29T12:39:37;14.90;99.90
31733;DHT22;18312;51.486;7.144;2022-09-29T12:42:21;15.30;99.90
31733;DHT22;18312;51.486;7.144;2022-09-29T12:44:53;15.80;96.90
31733;DHT22;18312;51.486;7.144;2022-09-29T12:47:27;16.30;97.10
31733;DHT22;18312;51.486;7.144;2022-09-29T12:50:01;16.50;93.80
31733;DHT22;18312;51.486;7.144;2022-09-29T12:52:32;16.40;93.20
31733;DHT22;18312;51.486;7.144;2022-09-29T12:55:07;16.30;98.60
31733;DHT22;18312;51.486;7.144;2022-09-29T12:57:41;16.40;92.30
31733;DHT22;18312;51.486;7.144;2022-09-29T13:00:11;16.20;99.90
31733;DHT22;18312;51.486;7.144;2022-09-29T13:03:16;15.90;93.70
31733;DHT22;18312;51.486;7.144;2022-09-29T13:09:00;15.60;94.50
31733;DHT22;18312;51.486;7.144;2022-09-29T13:11:45;15.40;99.90
31733;DHT22;18312;51.486;7.144;2022-09-29T13:14:42;15.20;96.90
31733;DHT22;18312;51.486;7.144;2022-09-29T13:17:22;15.00;98.60
31733;DHT22;18312;51.486;7.144;2022-09-29T13:23:33;14.60;99.90
31733;DHT22;18312;51.486;7.144;2022-09-29T13:29:21;14.50;99.90
31733;DHT22;18312;51.486;7.144;2022-09-29T13:31:50;14.40;99.90
31733;DHT22;18312;51.486;7.144;2022-09-29T13:34:29;14.30;99.90
31733;DHT22;18312;51.486;7.144;2022-09-29T13:37:05;14.40;99.90
31733;DHT22;18312;51.486;7.144;2022-09-29T13:39:33;14.40;99.90
31733;DHT22;18312;51.486;7.144;2022-09-29T13:42:26;14.40;99.90
31733;DHT22;18312;51.486;7.144;2022-09-29T13:51:55;14.50;99.90
31733;DHT22;18312;51.486;7.144;2022-09-29T13:54:25;14.70;99.90
31733;DHT22;18312;51.486;7.144;2022-09-29T13:56:58;14.70;99.90
31733;DHT22;18312;51.486;7.144;2022-09-29T13:59:25;14.70;99.90
31733;DHT22;18312;51.486;7.144;2022-09-29T14:01:53;14.90;99.90
31733;DHT22;18312;51.486;7.144;2022-09-29T14:04:50;14.80;95.90
31733;DHT22;18312;51.486;7.144;2022-09-29T14:07:38;15.10;99.90
31733;DHT22;18312;51.486;7.144;2022-09-29T14:10:19;15.20;99.90
31733;DHT22;18312;51.486;7.144;2022-09-29T14:12:53;15.40;99.90
31733;DHT22;18312;51.486;7.144;2022-09-29T14:15:22;15.70;99.90
31733;DHT22;18312;51.486;7.144;2022-09-29T14:17:54;16.00;96.40
31733;DHT22;18312;51.486;7.144;2022-09-29T14:20:25;16.20;92.50
31733;DHT22;18312;51.486;7.144;2022-09-29T14:22:58;16.70;91.20
31733;DHT22;18312;51.486;7.144;2022-09-29T14:28:41;16.50;90.60
31733;DHT22;18312;51.486;7.144;2022-09-29T14:31:20;15.90;96.70
31733;DHT22;18312;51.486;7.144;2022-09-29T14:33:49;16.10;90.70
31733;DHT22;18312;51.486;7.144;2022-09-29T14:36:19;16.10;89.30
31733;DHT22;18312;51.486;7.144;2022-09-29T14:38:49;16.10;91.80
31733;DHT22;18312;51.486;7.144;2022-09-29T14:41:25;16.10;90.00
31733;DHT22;18312;51.486;7.144;2022-09-29T14:43:59;16.30;90.30
31733;DHT22;18312;51.486;7.144;2022-09-29T14:46:57;16.20;88.10
31733;DHT22;18312;51.486;7.144;2022-09-29T14:49:59;16.20;91.50
31733;DHT22;18312;51.486;7.144;2022-09-29T14:52:56;16.10;86.60
31733;DHT22;18312;51.486;7.144;2022-09-29T14:55:33;15.90;86.30
31733;DHT22;18312;51.486;7.144;2022-09-29T14:58:13;15.80;89.20
31733;DHT22;18312;51.486;7.144;2022-09-29T15:00:51;15.70;89.00
31733;DHT22;18312;51.486;7.144;2022-09-29T15:03:25;15.70;88.70
31733;DHT22;18312;51.486;7.144;2022-09-29T15:06:12;15.60;92.90
31733;DHT22;18312;51.486;7.144;2022-09-29T15:08:40;15.70;87.30
31733;DHT22;18312;51.486;7.144;2022-09-29T15:11:32;15.70;87.00
31733;DHT22;18312;51.486;7.144;2022-09-29T15:14:23;15.60;87.00
31733;DHT22;18312;51.486;7.144;2022-09-29T15:17:04;15.40;86.10
31733;DHT22;18312;51.486;7.144;2022-09-29T15:19:47;15.40;90.40
31733;DHT22;18312;51.486;7.144;2022-09-29T15:22:34;15.40;90.90
31733;DHT22;18312;51.486;7.144;2022-09-29T15:25:25;15.30;85.50
31733;DHT22;18312;51.486;7.144;2022-09-29T15:28:00;15.30;90.70
31733;DHT22;18312;51.486;7.144;2022-09-29T15:30:28;15.10;96.70
31733;DHT22;18312;51.486;7.144;2022-09-29T15:33:13;14.90;93.50
31733;DHT22;18312;51.486;7.144;2022-09-29T15:35:51;14.80;97.00
31733;DHT22;18312;51.486;7.144;2022-09-29T15:38:32;14.70;99.30
31733;DHT22;18312;51.486;7.144;2022-09-29T15:41:04;14.50;95.20
31733;DHT22;18312;51.486;7.144;2022-09-29T15:43:41;14.50;96.30
31733;DHT22;18312;51.486;7.144;2022-09-29T15:46:15;14.40;98.10
31733;DHT22;18312;51.486;7.144;2022-09-29T15:49:05;14.40;96.60
31733;DHT22;18312;51.486;7.144;2022-09-29T15:51:32;14.30;99.80
31733;DHT22;18312;51.486;7.144;2022-09-29T15:54:02;14.30;94.30
31733;DHT22;18312;51.486;7.144;2022-09-29T15:56:33;14.30;97.40
31733;DHT22;18312;51.486;7.144;2022-09-29T15:59:37;14.20;96.90
31733;DHT22;18312;51.486;7.144;2022-09-29T16:02:14;14.10;99.00
31733;DHT22;18312;51.486;7.144;2022-09-29T16:04:42;14.10;99.70
31733;DHT22;18312;51.486;7.144;2022-09-29T16:07:18;13.90;99.50
31733;DHT22;18312;51.486;7.144;2022-09-29T16:09:46;14.00;97.10
31733;DHT22;18312;51.486;7.144;2022-09-29T16:12:15;14.00;96.00
31733;DHT22;18312;51.486;7.144;2022-09-29T16:14:43;13.90;99.90
31733;DHT22;18312;51.486;7.144;2022-09-29T16:17:11;13.90;99.90
31733;DHT22;18312;51.486;7.144;2022-09-29T16:19:41;13.90;99.90
31733;DHT22;18312;51.486;7.144;2022-09-29T16:22:17;13.80;99.90
31733;DHT22;18312;51.486;7.144;2022-09-29T16:24:52;14.00;99.90
31733;DHT22;18312;51.486;7.144;2022-09-29T16:27:43;14.00;99.90
31733;DHT22;18312;51.486;7.144;2022-09-29T16:30:19;13.90;99.90
31733;DHT22;18312;51.486;7.144;2022-09-29T16:32:52;14.00;99.90
31733;DHT22;18312;51.486;7.144;2022-09-29T16:35:40;13.90;99.90
31733;DHT22;18312;51.486;7.144;2022-09-29T16:38:19;13.90;99.90